Courtland, Mississippi
Current Conditions -  °F | °C
As of 9:55 AM on Tuesday 21 Oct 2014 (Local Time) from KUOX Reporting Station
Clear Clear  
Wind Chill: 63°   Ceiling: Unl
Heat Index: 63°   Visibility: 9mi
Dew Point: 55°   Wind: 0mph
Humidity: 77%   Direction: NA
Pressure: 30.11"   Gusts: NA
Location:  34.24°N, 89.94°W
Report Text: KUOX 211455Z AUTO 00000KT 9SM CLR 17/13 A3011 RMK AO2 PWINO PNO
Loading
Personal Weather Stations






























Interactive Weather Map
Tropical Storm Tracking
New forecast layout! Learn more

10-Day Weather Forecast

Advertisements
Track Severe Weather on mobile